createdAt,value
2023-04-08T00:00:40.426Z,100449.53
2023-04-08T00:01:40.437Z,100450.45
2023-04-08T00:02:40.574Z,100449.14
2023-04-08T00:03:40.577Z,100448.22
2023-04-08T00:04:40.578Z,100447.27
2023-04-08T00:05:40.482Z,100448.95
2023-04-08T00:06:40.487Z,100446.09
2023-04-08T00:07:40.650Z,100442.64
2023-04-08T00:08:40.584Z,100446.17
2023-04-08T00:09:40.610Z,100448.63
2023-04-08T00:10:40.909Z,100443.45
2023-04-08T00:11:41.220Z,100444.19
2023-04-08T00:12:40.633Z,100444.52
2023-04-08T00:13:40.619Z,100447.02
2023-04-08T00:14:40.809Z,100447.3
2023-04-08T00:15:41.049Z,100446.68
2023-04-08T00:16:40.721Z,100448.64
2023-04-08T00:17:41.314Z,100447.16
2023-04-08T00:18:40.764Z,100444.45
2023-04-08T00:19:40.829Z,100446.7
2023-04-08T00:20:40.712Z,100446.58
2023-04-08T00:21:40.746Z,100444.73
2023-04-08T00:22:40.754Z,100442.53
2023-04-08T00:23:40.778Z,100447.92
2023-04-08T00:24:40.853Z,100446.77
2023-04-08T00:25:40.944Z,100448.45
2023-04-08T00:26:40.973Z,100448.62
2023-04-08T00:27:40.844Z,100441.59
2023-04-08T00:28:40.968Z,100443.24
2023-04-08T00:29:40.943Z,100446.24
2023-04-08T00:30:41.161Z,100445.7
2023-04-08T00:31:40.924Z,100447.33
2023-04-08T00:32:40.966Z,100448.64
2023-04-08T00:33:40.915Z,100443.34
2023-04-08T00:34:40.933Z,100446.61
2023-04-08T00:35:40.989Z,100447.01
2023-04-08T00:36:41.413Z,100442.44
2023-04-08T00:37:41.002Z,100443.89
2023-04-08T00:38:41.008Z,100444.37
2023-04-08T00:39:41.335Z,100445.66
2023-04-08T00:40:43.141Z,100443.98
2023-04-08T00:41:41.073Z,100445.08
2023-04-08T00:42:41.073Z,100443.22
2023-04-08T00:43:41.086Z,100443.81
2023-04-08T00:44:41.069Z,100440.41
2023-04-08T00:45:41.104Z,100442.15
2023-04-08T00:46:41.380Z,100443.77
2023-04-08T00:47:42.664Z,100439.66
2023-04-08T00:48:41.183Z,100441.8
2023-04-08T00:49:41.474Z,100438.95
2023-04-08T00:50:43.047Z,100438.14
2023-04-08T00:51:41.278Z,100434.41
2023-04-08T00:52:41.249Z,100435.44
2023-04-08T00:53:41.256Z,100440.35
2023-04-08T00:54:41.621Z,100439.69
2023-04-08T00:55:41.326Z,100438.19
2023-04-08T00:56:43.380Z,100433.9
2023-04-08T00:57:41.639Z,100439.09
2023-04-08T00:58:41.467Z,100439.68
2023-04-08T00:59:42.392Z,100438.82
2023-04-08T01:00:43.767Z,100435.45
2023-04-08T01:02:50.801Z,100433.69
2023-04-08T01:03:55.842Z,100438.08
2023-04-08T01:07:59.788Z,100437.94
2023-04-08T01:08:58.722Z,100436.68
2023-04-08T01:09:58.972Z,100435.75
2023-04-08T01:10:59.642Z,100434.93
2023-04-08T01:11:58.604Z,100437.73
2023-04-08T01:12:58.202Z,100437.95
2023-04-08T01:13:58.084Z,100434.36
2023-04-08T01:15:00.403Z,100438.05
2023-04-08T01:15:57.283Z,100435.8
2023-04-08T01:16:58.756Z,100433.85
2023-04-08T01:17:58.642Z,100433.64
2023-04-08T01:18:57.149Z,100435.06
2023-04-08T01:19:58.436Z,100433.75
2023-04-08T01:20:59.006Z,100432.47
2023-04-08T01:22:01.582Z,100433.11
2023-04-08T01:25:06.621Z,100427.97
2023-04-08T01:26:04.350Z,100427.09
2023-04-08T01:27:05.113Z,100429.48
2023-04-08T01:28:06.024Z,100428.75
2023-04-08T01:29:05.145Z,100426.7
2023-04-08T01:30:04.843Z,100428.72
2023-04-08T01:31:04.729Z,100430.05
2023-04-08T01:32:06.288Z,100427.86
2023-04-08T01:33:05.505Z,100430.67
2023-04-08T01:34:05.149Z,100426.22
2023-04-08T01:35:05.148Z,100429.93
2023-04-08T01:36:05.992Z,100428.23
2023-04-08T01:37:04.877Z,100426.77
2023-04-08T01:38:05.418Z,100426.07
2023-04-08T01:39:05.569Z,100425.93
2023-04-08T01:40:05.685Z,100424.52
2023-04-08T01:41:04.973Z,100428.52
2023-04-08T01:42:04.805Z,100429.32
2023-04-08T01:43:06.369Z,100426.02
2023-04-08T01:44:04.805Z,100427.19
2023-04-08T01:45:05.599Z,100426.64
2023-04-08T01:46:05.963Z,100424.06
2023-04-08T01:47:04.591Z,100426.25
2023-04-08T01:48:05.616Z,100426.25
2023-04-08T01:49:06.271Z,100426.63
2023-04-08T01:50:05.071Z,100427.77
2023-04-08T01:51:05.478Z,100427.8
2023-04-08T01:52:06.401Z,100426.42
2023-04-08T01:53:05.901Z,100429.03
2023-04-08T01:54:05.176Z,100423.52
2023-04-08T01:55:05.168Z,100426.3
2023-04-08T01:56:06.633Z,100425.5
2023-04-08T01:57:05.712Z,100425.98
2023-04-08T01:58:05.532Z,100423.57
2023-04-08T01:59:08.099Z,100424.3
2023-04-08T02:00:09.012Z,100424.66
2023-04-08T02:02:08.797Z,100427.16
2023-04-08T02:03:08.097Z,100427.11
2023-04-08T02:04:07.588Z,100427.53
2023-04-08T02:05:08.327Z,100426.77
2023-04-08T02:06:07.484Z,100427.24
2023-04-08T02:07:07.860Z,100427.91
2023-04-08T02:08:07.518Z,100426.99
2023-04-08T02:09:07.545Z,100427.33
2023-04-08T02:10:08.142Z,100422.66
2023-04-08T02:11:07.568Z,100427.31
2023-04-08T02:12:07.918Z,100424.46
2023-04-08T02:13:08.110Z,100427.05
2023-04-08T02:14:07.636Z,100427.55
2023-04-08T02:15:08.691Z,100424.44
2023-04-08T02:17:13.278Z,100428.98
2023-04-08T02:18:16.845Z,100429.42
2023-04-08T02:20:17.624Z,100427.5
2023-04-08T02:21:15.415Z,100427.89
2023-04-08T02:23:17.360Z,100431.23
2023-04-08T02:24:17.397Z,100429.2
2023-04-08T02:25:16.384Z,100431.94
2023-04-08T02:26:16.556Z,100427.65
2023-04-08T02:27:16.515Z,100430.39
2023-04-08T02:28:17.550Z,100425.69
2023-04-08T02:29:16.074Z,100426.53
2023-04-08T02:30:16.467Z,100427.45
2023-04-08T02:31:16.939Z,100426.88
2023-04-08T02:32:17.134Z,100430.36
2023-04-08T02:33:17.899Z,100426.97
2023-04-08T02:34:17.637Z,100425.84
2023-04-08T02:35:17.325Z,100430.2
2023-04-08T02:36:16.956Z,100424.37
2023-04-08T02:37:16.529Z,100428.55
2023-04-08T02:38:16.541Z,100426.16
2023-04-08T02:39:16.819Z,100427.26
2023-04-08T02:41:17.935Z,100433.05
2023-04-08T02:42:17.965Z,100430.8
2023-04-08T02:43:17.966Z,100435.17
2023-04-08T02:44:18.053Z,100427.25
2023-04-08T02:45:18.253Z,100432.16
2023-04-08T02:46:18.046Z,100432.42
2023-04-08T02:47:18.022Z,100429.81
2023-04-08T02:48:18.096Z,100428.92
2023-04-08T02:49:18.063Z,100434.02
2023-04-08T02:50:18.248Z,100434.79
2023-04-08T02:51:18.080Z,100431.48
2023-04-08T02:52:18.256Z,100436.81
2023-04-08T02:53:18.101Z,100428.08
2023-04-08T02:54:18.192Z,100433.69
2023-04-08T02:55:18.144Z,100431.06
2023-04-08T02:56:18.221Z,100431.81
2023-04-08T02:57:18.214Z,100433.7
2023-04-08T02:58:18.296Z,100433.86
2023-04-08T02:59:18.295Z,100430.12
2023-04-08T03:00:18.308Z,100430.3
2023-04-08T03:01:18.335Z,100428.52
2023-04-08T03:02:18.330Z,100432.39
2023-04-08T03:03:18.361Z,100431.87
2023-04-08T03:04:18.396Z,100433.44
2023-04-08T03:05:18.390Z,100430.88
2023-04-08T03:06:18.455Z,100434.42
2023-04-08T03:07:18.354Z,100429.5
2023-04-08T03:08:18.370Z,100434.08
2023-04-08T03:09:18.427Z,100433.69
2023-04-08T03:10:18.464Z,100433.57
2023-04-08T03:11:18.416Z,100426.57
2023-04-08T03:12:18.446Z,100423.62
2023-04-08T03:13:18.485Z,100427.39
2023-04-08T03:14:18.520Z,100424.32
2023-04-08T03:15:18.652Z,100424.34
2023-04-08T03:16:18.549Z,100420.42
2023-04-08T03:17:18.699Z,100422.84
2023-04-08T03:18:18.569Z,100425.72
2023-04-08T03:19:18.577Z,100425.9
2023-04-08T03:20:18.620Z,100425.32
2023-04-08T03:21:18.629Z,100423.02
2023-04-08T03:22:19.016Z,100428.18
2023-04-08T03:23:18.634Z,100424.69
2023-04-08T03:24:18.645Z,100424.5
2023-04-08T03:25:18.702Z,100422.03
2023-04-08T03:26:18.688Z,100425.05
2023-04-08T03:27:18.696Z,100423.59
2023-04-08T03:28:18.695Z,100427.02
2023-04-08T03:29:18.732Z,100424.47
2023-04-08T03:30:18.732Z,100425.3
2023-04-08T03:31:18.770Z,100426.94
2023-04-08T03:32:18.826Z,100426.72
2023-04-08T03:33:18.770Z,100424.66
2023-04-08T03:34:18.797Z,100425.46
2023-04-08T03:35:18.960Z,100427.31
2023-04-08T03:36:18.844Z,100428.83
2023-04-08T03:37:18.925Z,100427.81
2023-04-08T03:38:18.851Z,100430.52
2023-04-08T03:39:19.004Z,100430.39
2023-04-08T03:40:19.111Z,100431.5
2023-04-08T03:41:18.966Z,100431.61
2023-04-08T03:42:18.945Z,100433.01
2023-04-08T03:43:18.947Z,100433.08
2023-04-08T03:44:19.042Z,100431.33
2023-04-08T03:45:19.905Z,100435.86
2023-04-08T03:46:19.024Z,100434.7
2023-04-08T03:47:19.044Z,100439.56
2023-04-08T03:48:19.110Z,100434.38
2023-04-08T03:49:19.065Z,100436.94
2023-04-08T03:50:19.081Z,100436.5
2023-04-08T03:51:19.131Z,100437.28
2023-04-08T03:52:19.092Z,100438.2
2023-04-08T03:53:19.128Z,100441.34
2023-04-08T03:54:19.158Z,100435.66
2023-04-08T03:55:19.129Z,100432.6
2023-04-08T03:56:19.186Z,100438.02
2023-04-08T03:57:19.187Z,100433.78
2023-04-08T03:58:19.203Z,100437.86
2023-04-08T03:59:19.291Z,100437.59
2023-04-08T04:00:19.228Z,100437.32
2023-04-08T04:01:19.223Z,100436.93
2023-04-08T04:02:19.357Z,100438.69
2023-04-08T04:03:19.356Z,100431.33
2023-04-08T04:04:19.659Z,100432.6
2023-04-08T04:05:19.288Z,100432.38
2023-04-08T04:06:19.305Z,100439.61
2023-04-08T04:07:19.337Z,100434.87
2023-04-08T04:08:19.375Z,100434.72
2023-04-08T04:09:19.365Z,100432.91
2023-04-08T04:10:19.389Z,100434.92
2023-04-08T04:11:19.408Z,100436.12
2023-04-08T04:12:19.462Z,100436.94
2023-04-08T04:13:19.441Z,100437.09
2023-04-08T04:14:19.484Z,100440.48
2023-04-08T04:15:19.492Z,100435.1
2023-04-08T04:16:19.561Z,100434.08
2023-04-08T04:17:19.515Z,100434.71
2023-04-08T04:18:19.528Z,100436.42
2023-04-08T04:19:19.510Z,100434.11
2023-04-08T04:20:19.567Z,100440.53
2023-04-08T04:21:19.561Z,100441.63
2023-04-08T04:22:19.702Z,100441.19
2023-04-08T04:23:19.607Z,100444.03
2023-04-08T04:24:19.592Z,100443.91
2023-04-08T04:25:19.829Z,100444.95
2023-04-08T04:26:19.622Z,100444.02
2023-04-08T04:27:19.708Z,100444.52
2023-04-08T04:28:19.686Z,100442.2
2023-04-08T04:29:19.672Z,100444.09
2023-04-08T04:30:19.695Z,100440.8
2023-04-08T04:31:20.417Z,100441.61
2023-04-08T04:32:19.752Z,100444.95
2023-04-08T04:33:19.761Z,100442.11
2023-04-08T04:34:19.772Z,100445.67
2023-04-08T04:35:19.898Z,100447.3
2023-04-08T04:36:19.868Z,100440.95
2023-04-08T04:37:19.810Z,100438.53
2023-04-08T04:38:19.835Z,100441.31
2023-04-08T04:39:19.862Z,100437
2023-04-08T04:40:19.896Z,100444.7
2023-04-08T04:41:19.884Z,100439.55
2023-04-08T04:42:19.920Z,100443.94
2023-04-08T04:43:19.921Z,100447.59
2023-04-08T04:44:19.985Z,100444.93
2023-04-08T04:45:19.949Z,100448.19
2023-04-08T04:46:20.032Z,100441.52
2023-04-08T04:47:19.994Z,100444.41
2023-04-08T04:48:20.106Z,100447.19
2023-04-08T04:49:20.158Z,100444.78
2023-04-08T04:50:20.047Z,100442.22
2023-04-08T04:51:20.074Z,100446.38
2023-04-08T04:52:20.040Z,100441.87
2023-04-08T04:53:20.068Z,100446.98
2023-04-08T04:54:20.150Z,100444.41
2023-04-08T04:55:20.313Z,100446
2023-04-08T04:56:20.122Z,100447.59
2023-04-08T04:57:20.128Z,100450.91
2023-04-08T04:58:20.133Z,100447.11
2023-04-08T04:59:20.208Z,100448.31
2023-04-08T05:00:20.194Z,100451.58
2023-04-08T05:01:20.253Z,100451.06
2023-04-08T05:02:20.343Z,100451.27
2023-04-08T05:03:20.249Z,100449.57
2023-04-08T05:04:20.274Z,100454.98
2023-04-08T05:05:20.338Z,100455.97
2023-04-08T05:06:20.343Z,100451.45
2023-04-08T05:07:20.307Z,100455.75
2023-04-08T05:08:20.850Z,100453.59
2023-04-08T05:09:20.365Z,100455
2023-04-08T05:10:20.566Z,100455.92
2023-04-08T05:11:20.527Z,100453.11
2023-04-08T05:12:20.404Z,100454.86
2023-04-08T05:13:20.423Z,100454.21
2023-04-08T05:14:20.456Z,100456.05
2023-04-08T05:15:20.506Z,100460.34
2023-04-08T05:16:20.458Z,100459.33
2023-04-08T05:17:20.466Z,100457.62
2023-04-08T05:18:20.513Z,100458.45
2023-04-08T05:19:20.562Z,100460.08
2023-04-08T05:20:21.171Z,100460.28
2023-04-08T05:21:20.532Z,100461.12
2023-04-08T05:22:20.525Z,100461.33
2023-04-08T05:23:20.553Z,100463.53
2023-04-08T05:24:20.574Z,100465.8
2023-04-08T05:25:20.600Z,100463.23
2023-04-08T05:26:20.666Z,100465.83
2023-04-08T05:27:20.644Z,100466.38
2023-04-08T05:28:20.671Z,100466.12
2023-04-08T05:29:20.648Z,100464.36
2023-04-08T05:30:20.885Z,100465.76
2023-04-08T05:31:20.763Z,100468.02
2023-04-08T05:32:20.833Z,100460.34
2023-04-08T05:33:20.741Z,100466.12
2023-04-08T05:34:20.778Z,100465.2
2023-04-08T05:35:20.836Z,100464.91
2023-04-08T05:36:20.790Z,100465
2023-04-08T05:37:20.814Z,100466.91
2023-04-08T05:38:20.817Z,100461.54
2023-04-08T05:39:20.879Z,100460.63
2023-04-08T05:40:20.870Z,100465.09
2023-04-08T05:41:20.877Z,100464.55
2023-04-08T05:42:20.911Z,100462.61
2023-04-08T05:43:20.917Z,100465.66
2023-04-08T05:44:20.933Z,100465.05
2023-04-08T05:45:20.937Z,100460.27
2023-04-08T05:46:21.017Z,100456.89
2023-04-08T05:47:21.050Z,100460.91
2023-04-08T05:48:21.260Z,100458.47
2023-04-08T05:49:21.362Z,100461.66
2023-04-08T05:50:21.020Z,100464.73
2023-04-08T05:51:21.047Z,100463.27
2023-04-08T05:52:21.128Z,100463.26
2023-04-08T05:53:21.650Z,100462.45
2023-04-08T05:54:21.691Z,100462.72
2023-04-08T05:55:21.898Z,100460.98
2023-04-08T05:56:21.697Z,100463.25
2023-04-08T05:57:21.756Z,100459.59
2023-04-08T05:58:21.741Z,100460.91
2023-04-08T05:59:21.747Z,100464.38
2023-04-08T06:00:22.012Z,100464.86
2023-04-08T06:01:21.809Z,100462.77
2023-04-08T06:02:21.913Z,100467.2
2023-04-08T06:03:22.264Z,100464.73
2023-04-08T06:04:21.953Z,100463.08
2023-04-08T06:05:21.869Z,100467.66
2023-04-08T06:06:22.320Z,100462.95
2023-04-08T06:07:21.867Z,100464.62
2023-04-08T06:08:21.860Z,100466.72
2023-04-08T06:09:21.894Z,100468.31
2023-04-08T06:10:21.898Z,100463.95
2023-04-08T06:11:21.925Z,100468.34
2023-04-08T06:12:21.930Z,100467.66
2023-04-08T06:13:21.965Z,100465.11
2023-04-08T06:14:21.928Z,100466.97
2023-04-08T06:15:21.958Z,100466.76
2023-04-08T06:16:22.008Z,100463.67
2023-04-08T06:17:22.130Z,100460.87
2023-04-08T06:18:22.021Z,100464.74
2023-04-08T06:19:22.056Z,100464.17
2023-04-08T06:20:22.136Z,100466.8
2023-04-08T06:21:22.166Z,100463.03
2023-04-08T06:22:22.079Z,100467.26
2023-04-08T06:23:22.260Z,100470.91
2023-04-08T06:24:22.087Z,100470.7
2023-04-08T06:25:22.124Z,100468.06
2023-04-08T06:26:22.163Z,100467.18
2023-04-08T06:27:22.154Z,100468.73
2023-04-08T06:28:22.205Z,100462.43
2023-04-08T06:29:22.419Z,100463.91
2023-04-08T06:30:22.422Z,100460.97
2023-04-08T06:31:22.214Z,100464.33
2023-04-08T06:32:22.333Z,100461.86
2023-04-08T06:33:22.230Z,100467.62
2023-04-08T06:34:22.253Z,100463.77
2023-04-08T06:35:22.263Z,100463.16
2023-04-08T06:36:22.228Z,100464.56
2023-04-08T06:37:22.260Z,100459.92
2023-04-08T06:38:22.306Z,100467.28
2023-04-08T06:39:22.274Z,100462.14
2023-04-08T06:40:22.290Z,100465.94
2023-04-08T06:41:22.326Z,100467.67
2023-04-08T06:42:23.181Z,100467.66
2023-04-08T06:43:22.372Z,100463.46
2023-04-08T06:44:22.384Z,100466.5
2023-04-08T06:45:22.607Z,100466.66
2023-04-08T06:46:22.460Z,100466.48
2023-04-08T06:47:22.441Z,100464.45
2023-04-08T06:48:22.612Z,100464.1
2023-04-08T06:49:22.468Z,100462.23
2023-04-08T06:50:22.562Z,100465.28
2023-04-08T06:51:22.457Z,100468.56
2023-04-08T06:52:22.490Z,100465.5
2023-04-08T06:53:23.309Z,100468.09
2023-04-08T06:54:22.477Z,100468.36
2023-04-08T06:55:22.524Z,100466.61
2023-04-08T06:56:22.517Z,100466.59
2023-04-08T06:57:22.546Z,100467.77
2023-04-08T06:58:22.540Z,100466.55
2023-04-08T06:59:22.631Z,100467.66
2023-04-08T07:00:22.579Z,100464.05
2023-04-08T07:01:22.656Z,100466.05
2023-04-08T07:02:22.723Z,100468.87
2023-04-08T07:03:23.361Z,100464.42
2023-04-08T07:04:22.722Z,100466.45
2023-04-08T07:05:22.647Z,100466.77
2023-04-08T07:06:22.674Z,100469.25
2023-04-08T07:07:22.640Z,100461.92
2023-04-08T07:08:22.704Z,100466.83
2023-04-08T07:09:22.699Z,100463.3
2023-04-08T07:10:22.719Z,100462.36
2023-04-08T07:11:22.733Z,100460.94
2023-04-08T07:12:22.727Z,100464.45
2023-04-08T07:13:22.776Z,100462.35
2023-04-08T07:14:22.786Z,100464.8
2023-04-08T07:15:22.782Z,100463.73
2023-04-08T07:16:22.836Z,100465.48
2023-04-08T07:17:22.865Z,100461.44
2023-04-08T07:18:22.821Z,100463.22
2023-04-08T07:19:22.829Z,100462.05
2023-04-08T07:20:23.417Z,100465.66
2023-04-08T07:21:22.881Z,100457.19
2023-04-08T07:22:23.039Z,100464.14
2023-04-08T07:23:23.131Z,100464.71
2023-04-08T07:24:22.940Z,100463.5
2023-04-08T07:25:22.941Z,100458.83
2023-04-08T07:26:22.949Z,100457.83
2023-04-08T07:27:22.990Z,100462.8
2023-04-08T07:28:22.944Z,100461.11
2023-04-08T07:29:23.468Z,100461.41
2023-04-08T07:30:23.481Z,100467.73
2023-04-08T07:31:23.662Z,100465.26
2023-04-08T07:32:23.605Z,100460.94
2023-04-08T07:33:23.486Z,100467.34
2023-04-08T07:34:23.512Z,100460.91
2023-04-08T07:35:23.779Z,100465.74
2023-04-08T07:36:23.584Z,100460.69
2023-04-08T07:37:23.589Z,100465.72
2023-04-08T07:38:24.215Z,100465.77
2023-04-08T07:39:23.735Z,100465.77
2023-04-08T07:40:23.796Z,100467.61
2023-04-08T07:41:23.619Z,100469.26
2023-04-08T07:42:23.645Z,100469.09
2023-04-08T07:43:23.639Z,100468.61
2023-04-08T07:44:23.670Z,100469.2
2023-04-08T07:45:23.680Z,100471.05
2023-04-08T07:46:23.776Z,100468.17
2023-04-08T07:47:23.685Z,100473.31
2023-04-08T07:48:23.892Z,100470.39
2023-04-08T07:49:23.709Z,100472.12
2023-04-08T07:50:23.769Z,100474.57
2023-04-08T07:51:23.796Z,100479.05
2023-04-08T07:52:23.776Z,100474.62
2023-04-08T07:53:24.003Z,100474.62
2023-04-08T07:54:23.784Z,100476.12
2023-04-08T07:55:23.772Z,100475.09
2023-04-08T07:56:23.799Z,100471.27
2023-04-08T07:57:23.884Z,100475.62
2023-04-08T07:58:23.804Z,100479.73
2023-04-08T07:59:23.829Z,100476.27
2023-04-08T08:00:23.881Z,100474.92
2023-04-08T08:01:23.873Z,100474.98
2023-04-08T08:02:24.056Z,100475.17
2023-04-08T08:03:24.085Z,100474.3
2023-04-08T08:04:24.086Z,100473.4
2023-04-08T08:05:24.019Z,100475.25
2023-04-08T08:06:23.932Z,100471.39
2023-04-08T08:07:23.989Z,100471.09
2023-04-08T08:08:24.104Z,100470.89
2023-04-08T08:09:24.001Z,100469.38
2023-04-08T08:10:24.025Z,100465.65
2023-04-08T08:11:24.016Z,100465.39
2023-04-08T08:12:24.052Z,100468.14
2023-04-08T08:13:24.063Z,100466.09
2023-04-08T08:14:24.033Z,100472.86
2023-04-08T08:15:24.069Z,100467.36
2023-04-08T08:16:24.082Z,100460.56
2023-04-08T08:17:25.384Z,100463.23
2023-04-08T08:18:24.282Z,100466.09
2023-04-08T08:19:24.097Z,100460.83
2023-04-08T08:20:24.127Z,100463.97
2023-04-08T08:21:24.164Z,100466.88
2023-04-08T08:22:24.158Z,100465.52
2023-04-08T08:23:24.193Z,100458.37
2023-04-08T08:24:24.177Z,100462.88
2023-04-08T08:25:26.096Z,100456.75
2023-04-08T08:26:24.204Z,100458
2023-04-08T08:27:24.229Z,100462.33
2023-04-08T08:28:24.275Z,100456.03
2023-04-08T08:29:24.911Z,100456.01
2023-04-08T08:30:24.467Z,100454.92
2023-04-08T08:31:24.314Z,100456.01
2023-04-08T08:32:24.287Z,100453.05
2023-04-08T08:33:24.710Z,100457.91
2023-04-08T08:34:24.314Z,100457.36
2023-04-08T08:35:24.551Z,100459.36
2023-04-08T08:36:24.349Z,100460.88
2023-04-08T08:37:24.388Z,100453.78
2023-04-08T08:38:24.728Z,100455.56
2023-04-08T08:39:24.387Z,100457.72
2023-04-08T08:40:24.430Z,100454.61
2023-04-08T08:41:24.392Z,100453.58
2023-04-08T08:42:24.927Z,100460.39
2023-04-08T08:43:25.035Z,100458.9
2023-04-08T08:44:24.609Z,100458.61
2023-04-08T08:45:24.475Z,100459.82
2023-04-08T08:46:24.603Z,100454.93
2023-04-08T08:47:24.779Z,100462.56
2023-04-08T08:48:24.686Z,100461.14
2023-04-08T08:49:24.570Z,100458.31
2023-04-08T08:50:24.662Z,100457.94
2023-04-08T08:51:24.887Z,100458.66
2023-04-08T08:52:24.558Z,100455.61
2023-04-08T08:53:31.368Z,100458.3
2023-04-08T08:54:29.226Z,100456.77
2023-04-08T08:55:53.217Z,100459.67
2023-04-08T08:56:33.833Z,100455.44
2023-04-08T08:57:33.738Z,100453.31
2023-04-08T08:58:33.738Z,100454.41
2023-04-08T08:59:33.835Z,100455.41
2023-04-08T09:00:38.278Z,100453.86
2023-04-08T09:01:35.928Z,100452.62
2023-04-08T09:02:34.730Z,100454.78
2023-04-08T09:03:34.718Z,100448.73
2023-04-08T09:04:34.698Z,100449.88
2023-04-08T09:06:38.550Z,100449.08
2023-04-08T09:07:38.640Z,100447.45
2023-04-08T09:08:38.340Z,100453.34
2023-04-08T09:10:42.015Z,100448.3
2023-04-08T09:11:46.068Z,100450.16
2023-04-08T09:13:44.307Z,100447.03
2023-04-08T09:14:43.510Z,100444.34
2023-04-08T09:16:44.802Z,100442.77
2023-04-08T09:17:44.435Z,100442.27
2023-04-08T09:18:45.118Z,100443.45
2023-04-08T09:21:45.401Z,100451.7
2023-04-08T09:23:51.633Z,100451.03
2023-04-08T09:24:48.688Z,100451.78
2023-04-08T09:25:48.772Z,100449.2
2023-04-08T09:26:48.746Z,100449.49
2023-04-08T09:27:48.722Z,100447.06
2023-04-08T09:29:08.184Z,100450.4
2023-04-08T09:29:50.922Z,100448.36
2023-04-08T09:30:50.938Z,100445.09
2023-04-08T09:31:57.226Z,100445.64
2023-04-08T09:32:54.637Z,100445.98
2023-04-08T09:34:00.626Z,100446.52
2023-04-08T09:34:57.362Z,100449.7
2023-04-08T09:35:56.923Z,100449.37
2023-04-08T09:36:57.045Z,100447.7
2023-04-08T09:37:56.960Z,100448.95
2023-04-08T09:38:57.054Z,100447.98
2023-04-08T09:39:56.885Z,100448.06
2023-04-08T09:40:57.063Z,100442.53
2023-04-08T09:41:58.290Z,100445.69
2023-04-08T09:42:58.025Z,100444.83
2023-04-08T09:43:58.321Z,100449.03
2023-04-08T09:44:57.759Z,100443.95
2023-04-08T09:45:58.303Z,100448.88
2023-04-08T09:48:06.831Z,100447.5
2023-04-08T09:49:07.472Z,100443.47
2023-04-08T09:50:06.553Z,100441.38
2023-04-08T09:51:04.708Z,100447.42
2023-04-08T09:52:08.314Z,100441.19
2023-04-08T09:53:13.998Z,100445.48
2023-04-08T09:54:10.596Z,100447.61
2023-04-08T09:55:12.320Z,100444.62
2023-04-08T09:56:11.703Z,100443.81
2023-04-08T09:57:22.138Z,100440.8
2023-04-08T09:58:18.960Z,100440.52
2023-04-08T09:59:17.369Z,100435.25
2023-04-08T10:00:17.192Z,100441.98
2023-04-08T10:01:16.902Z,100443.12
2023-04-08T10:02:17.206Z,100436.8
2023-04-08T10:03:30.213Z,100441.75
2023-04-08T10:04:18.761Z,100440.14
2023-04-08T10:05:17.629Z,100440.08
2023-04-08T10:06:17.097Z,100437.47
2023-04-08T10:07:17.424Z,100441.33
2023-04-08T10:08:17.239Z,100435.93
2023-04-08T10:09:17.351Z,100433.39
2023-04-08T10:10:17.696Z,100435.77
2023-04-08T10:11:17.134Z,100432.14
2023-04-08T10:12:17.288Z,100435.67
2023-04-08T10:13:17.372Z,100435.36
2023-04-08T10:14:17.182Z,100434.16
2023-04-08T10:15:27.203Z,100435.19
2023-04-08T10:16:22.422Z,100434.97
2023-04-08T10:17:28.009Z,100436.33
2023-04-08T10:24:34.514Z,100431.67
2023-04-08T10:25:38.290Z,100433.08
2023-04-08T10:26:38.870Z,100429.42
2023-04-08T10:27:39.587Z,100430.87
2023-04-08T10:28:36.287Z,100429.62
2023-04-08T10:29:36.260Z,100426.63
2023-04-08T10:30:39.493Z,100426.82
2023-04-08T10:31:40.146Z,100427.75
2023-04-08T10:32:40.549Z,100425.88
2023-04-08T10:33:40.879Z,100429.88
2023-04-08T10:34:50.818Z,100426.55
2023-04-08T10:35:43.955Z,100427.35
2023-04-08T10:36:42.501Z,100429.8
2023-04-08T10:37:42.704Z,100429.89
2023-04-08T10:38:42.676Z,100426.39
2023-04-08T10:39:48.476Z,100430.2
2023-04-08T10:40:45.485Z,100429.34
2023-04-08T10:41:49.058Z,100429.3
2023-04-08T10:42:45.741Z,100423.85
2023-04-08T10:43:46.862Z,100428.05
2023-04-08T10:44:45.741Z,100421.54
2023-04-08T10:45:48.617Z,100424.56
2023-04-08T10:46:46.260Z,100417.05
2023-04-08T10:47:45.864Z,100416.36
2023-04-08T10:48:59.116Z,100419.89
2023-04-08T10:49:50.870Z,100417.72
2023-04-08T10:50:57.663Z,100411.83
2023-04-08T10:51:54.384Z,100413.13
2023-04-08T10:52:54.420Z,100411.77
2023-04-08T10:53:54.536Z,100412.03
2023-04-08T10:54:54.507Z,100414.21
2023-04-08T10:55:55.044Z,100414.17
2023-04-08T10:56:54.813Z,100415.03
2023-04-08T10:57:55.848Z,100413.8
2023-04-08T10:58:55.243Z,100418.98
2023-04-08T10:59:54.508Z,100412.71
2023-04-08T11:00:54.537Z,100415.18
2023-04-08T11:01:54.688Z,100413.97
2023-04-08T11:02:54.702Z,100412.09
2023-04-08T11:03:54.926Z,100410.09
2023-04-08T11:04:54.582Z,100410.55
2023-04-08T11:05:57.541Z,100407.98
2023-04-08T11:06:54.661Z,100410.89
2023-04-08T11:07:54.603Z,100411.77
2023-04-08T11:08:57.262Z,100405.33
2023-04-08T11:09:54.811Z,100407.98
2023-04-08T11:10:54.707Z,100411.58
2023-04-08T11:11:54.749Z,100414.75
2023-04-08T11:12:55.127Z,100414.45
2023-04-08T11:13:56.615Z,100412.64
2023-04-08T11:14:54.775Z,100408.05
2023-04-08T11:16:00.745Z,100414.67
2023-04-08T11:16:57.681Z,100412.55
2023-04-08T11:17:57.908Z,100406.66
2023-04-08T11:18:57.954Z,100411.16
2023-04-08T11:19:57.940Z,100406.51
2023-04-08T11:21:00.083Z,100407.88
2023-04-08T11:21:58.427Z,100405.09
2023-04-08T11:22:57.643Z,100405.42
2023-04-08T11:23:57.717Z,100406.97
2023-04-08T11:24:58.205Z,100400.11
2023-04-08T11:25:57.825Z,100406.75
2023-04-08T11:26:57.882Z,100403.12
2023-04-08T11:27:57.914Z,100402.62
2023-04-08T11:28:57.891Z,100398.94
2023-04-08T11:29:58.443Z,100402.47
2023-04-08T11:30:58.081Z,100400.51
2023-04-08T11:31:57.955Z,100402.23
2023-04-08T11:32:58.190Z,100402.58
2023-04-08T11:33:57.808Z,100404.33
2023-04-08T11:35:01.334Z,100402.26
2023-04-08T11:35:58.112Z,100401.19
2023-04-08T11:36:58.051Z,100399.89
2023-04-08T11:37:58.267Z,100399.56
2023-04-08T11:38:58.090Z,100401.8
2023-04-08T11:39:58.184Z,100398.27
2023-04-08T11:40:58.996Z,100393.67
2023-04-08T11:41:58.162Z,100396.25
2023-04-08T11:42:58.223Z,100397.95
2023-04-08T11:43:58.158Z,100388.45
2023-04-08T11:44:58.658Z,100393.9
2023-04-08T11:45:58.348Z,100394.92
2023-04-08T11:46:58.228Z,100392.6
2023-04-08T11:47:58.471Z,100391.84
2023-04-08T11:49:02.794Z,100392.41
2023-04-08T11:50:00.011Z,100394.99
2023-04-08T11:51:02.958Z,100391.52
2023-04-08T11:51:59.885Z,100394.42
2023-04-08T11:52:59.764Z,100398.13
2023-04-08T11:53:59.931Z,100398.12